Terminal Aerodrome Forecast
Issued by NWS Mt. Holly, NJ

Home | Current Version | Previous Version | Text Only | Print | Product List | Glossary On
Versions: 1 2 3 4 5 6 7 8 9 10 11 12 13 14 15 16 17 18 19 20 21 22 23 24 25 26 27 28 29 30 31 32 33 34 35 36 37 38 39 40 41 42 43 44 45 46 47 48 49 50
000
FTAK31 PANC 261124
TAFABE
TAF
PABE 261124Z 2612/2712 32005KT 3SM BR OVC003
      TEMPO 2612/2616 2SM BR BKN002 OVC004
     FM261600 28011KT 3SM BR SCT002 BKN004 OVC008
     FM261800 27007KT 4SM BR SCT004 BKN008
     FM262100 27005KT P6SM VCFG FEW008 SCT012 BKN025
     FM270200 03005KT P6SM SCT035 BKN100=

USA.gov is the U.S. government's official web portal to all federal, state and local government web resources and services.